sensor_id;sensor_type;location;lat;lon;timestamp;P1;durP1;ratioP1;P2;durP2;ratioP2
76552;SDS011;65395;53.168;18.156;2023-07-31T00:02:10;3.10;;;2.10;;
76552;SDS011;65395;53.168;18.156;2023-07-31T00:04:37;2.80;;;2.00;;
76552;SDS011;65395;53.168;18.156;2023-07-31T00:07:04;2.80;;;2.00;;
76552;SDS011;65395;53.168;18.156;2023-07-31T00:09:32;4.00;;;1.80;;
76552;SDS011;65395;53.168;18.156;2023-07-31T00:11:59;4.50;;;2.30;;
76552;SDS011;65395;53.168;18.156;2023-07-31T00:14:26;4.40;;;2.10;;
76552;SDS011;65395;53.168;18.156;2023-07-31T00:16:53;3.80;;;2.00;;
76552;SDS011;65395;53.168;18.156;2023-07-31T00:19:19;3.90;;;2.30;;
76552;SDS011;65395;53.168;18.156;2023-07-31T00:21:46;3.70;;;2.00;;
76552;SDS011;65395;53.168;18.156;2023-07-31T00:24:13;3.20;;;1.90;;
76552;SDS011;65395;53.168;18.156;2023-07-31T00:26:39;3.40;;;2.10;;
76552;SDS011;65395;53.168;18.156;2023-07-31T00:29:06;4.60;;;2.20;;
76552;SDS011;65395;53.168;18.156;2023-07-31T00:31:32;5.20;;;2.20;;
76552;SDS011;65395;53.168;18.156;2023-07-31T00:33:59;2.80;;;2.10;;
76552;SDS011;65395;53.168;18.156;2023-07-31T00:36:26;3.10;;;2.10;;
76552;SDS011;65395;53.168;18.156;2023-07-31T00:38:53;6.20;;;2.10;;
76552;SDS011;65395;53.168;18.156;2023-07-31T00:41:19;6.50;;;2.10;;
76552;SDS011;65395;53.168;18.156;2023-07-31T00:43:46;3.30;;;2.20;;
76552;SDS011;65395;53.168;18.156;2023-07-31T00:46:13;3.50;;;2.00;;
76552;SDS011;65395;53.168;18.156;2023-07-31T00:48:41;3.90;;;2.10;;
76552;SDS011;65395;53.168;18.156;2023-07-31T00:51:08;4.60;;;2.00;;
76552;SDS011;65395;53.168;18.156;2023-07-31T00:53:35;3.80;;;2.00;;
76552;SDS011;65395;53.168;18.156;2023-07-31T00:56:03;2.60;;;2.20;;
76552;SDS011;65395;53.168;18.156;2023-07-31T00:58:30;3.00;;;2.00;;
76552;SDS011;65395;53.168;18.156;2023-07-31T01:00:57;3.70;;;2.10;;
76552;SDS011;65395;53.168;18.156;2023-07-31T01:03:24;3.10;;;2.10;;
76552;SDS011;65395;53.168;18.156;2023-07-31T01:08:48;3.90;;;2.00;;
76552;SDS011;65395;53.168;18.156;2023-07-31T01:11:29;3.50;;;2.20;;
76552;SDS011;65395;53.168;18.156;2023-07-31T01:13:57;5.20;;;2.30;;
76552;SDS011;65395;53.168;18.156;2023-07-31T01:16:25;3.70;;;2.40;;
76552;SDS011;65395;53.168;18.156;2023-07-31T01:18:53;3.70;;;2.40;;
76552;SDS011;65395;53.168;18.156;2023-07-31T01:27:06;3.50;;;2.60;;
76552;SDS011;65395;53.168;18.156;2023-07-31T01:29:38;5.40;;;2.50;;
76552;SDS011;65395;53.168;18.156;2023-07-31T01:32:13;4.00;;;2.80;;
76552;SDS011;65395;53.168;18.156;2023-07-31T01:34:42;6.60;;;2.50;;
76552;SDS011;65395;53.168;18.156;2023-07-31T01:37:09;6.30;;;2.70;;
76552;SDS011;65395;53.168;18.156;2023-07-31T01:39:36;3.80;;;2.50;;
76552;SDS011;65395;53.168;18.156;2023-07-31T01:42:03;5.30;;;2.40;;
76552;SDS011;65395;53.168;18.156;2023-07-31T01:44:30;8.90;;;2.60;;
76552;SDS011;65395;53.168;18.156;2023-07-31T01:46:59;6.40;;;2.90;;
76552;SDS011;65395;53.168;18.156;2023-07-31T01:49:27;5.80;;;2.80;;
76552;SDS011;65395;53.168;18.156;2023-07-31T01:51:54;4.80;;;2.50;;
76552;SDS011;65395;53.168;18.156;2023-07-31T01:54:22;3.80;;;2.80;;
76552;SDS011;65395;53.168;18.156;2023-07-31T01:56:49;4.00;;;2.60;;
76552;SDS011;65395;53.168;18.156;2023-07-31T01:59:15;5.70;;;2.80;;
76552;SDS011;65395;53.168;18.156;2023-07-31T02:01:42;6.50;;;3.30;;
76552;SDS011;65395;53.168;18.156;2023-07-31T02:04:09;4.90;;;3.00;;
76552;SDS011;65395;53.168;18.156;2023-07-31T02:06:35;6.20;;;2.80;;
76552;SDS011;65395;53.168;18.156;2023-07-31T02:09:02;6.10;;;3.00;;
76552;SDS011;65395;53.168;18.156;2023-07-31T02:11:31;5.60;;;3.00;;
76552;SDS011;65395;53.168;18.156;2023-07-31T02:13:58;5.50;;;3.00;;
76552;SDS011;65395;53.168;18.156;2023-07-31T02:16:25;5.20;;;3.00;;
76552;SDS011;65395;53.168;18.156;2023-07-31T02:18:51;3.70;;;2.80;;
76552;SDS011;65395;53.168;18.156;2023-07-31T02:21:18;5.70;;;2.80;;
76552;SDS011;65395;53.168;18.156;2023-07-31T02:23:45;5.70;;;3.10;;
76552;SDS011;65395;53.168;18.156;2023-07-31T02:26:12;7.20;;;3.20;;
76552;SDS011;65395;53.168;18.156;2023-07-31T02:28:38;4.00;;;3.00;;
76552;SDS011;65395;53.168;18.156;2023-07-31T02:31:05;4.30;;;3.00;;
76552;SDS011;65395;53.168;18.156;2023-07-31T02:33:32;3.50;;;2.80;;
76552;SDS011;65395;53.168;18.156;2023-07-31T02:35:58;4.40;;;2.90;;
76552;SDS011;65395;53.168;18.156;2023-07-31T02:38:26;5.50;;;3.10;;
76552;SDS011;65395;53.168;18.156;2023-07-31T02:40:53;5.10;;;3.00;;
76552;SDS011;65395;53.168;18.156;2023-07-31T02:43:20;5.70;;;3.20;;
76552;SDS011;65395;53.168;18.156;2023-07-31T02:45:50;5.20;;;3.30;;
76552;SDS011;65395;53.168;18.156;2023-07-31T02:48:18;5.00;;;3.20;;
76552;SDS011;65395;53.168;18.156;2023-07-31T02:50:45;4.40;;;3.10;;
76552;SDS011;65395;53.168;18.156;2023-07-31T02:53:13;5.10;;;3.10;;
76552;SDS011;65395;53.168;18.156;2023-07-31T02:55:40;5.00;;;3.20;;
76552;SDS011;65395;53.168;18.156;2023-07-31T02:58:07;5.20;;;3.10;;
76552;SDS011;65395;53.168;18.156;2023-07-31T03:00:34;4.90;;;3.20;;
76552;SDS011;65395;53.168;18.156;2023-07-31T03:03:01;5.90;;;3.30;;
76552;SDS011;65395;53.168;18.156;2023-07-31T03:05:28;5.10;;;3.20;;
76552;SDS011;65395;53.168;18.156;2023-07-31T03:07:55;4.90;;;3.30;;
76552;SDS011;65395;53.168;18.156;2023-07-31T03:10:21;4.80;;;2.90;;
76552;SDS011;65395;53.168;18.156;2023-07-31T03:12:48;4.50;;;3.10;;
76552;SDS011;65395;53.168;18.156;2023-07-31T03:15:14;6.30;;;3.50;;
76552;SDS011;65395;53.168;18.156;2023-07-31T03:17:41;5.40;;;2.90;;
76552;SDS011;65395;53.168;18.156;2023-07-31T03:20:08;6.60;;;3.20;;
76552;SDS011;65395;53.168;18.156;2023-07-31T03:22:35;8.50;;;3.50;;
76552;SDS011;65395;53.168;18.156;2023-07-31T03:25:02;6.20;;;2.90;;
76552;SDS011;65395;53.168;18.156;2023-07-31T03:27:29;10.00;;;3.50;;
76552;SDS011;65395;53.168;18.156;2023-07-31T03:29:57;6.50;;;3.20;;
76552;SDS011;65395;53.168;18.156;2023-07-31T03:32:24;6.50;;;3.80;;
76552;SDS011;65395;53.168;18.156;2023-07-31T03:34:50;5.50;;;2.90;;
76552;SDS011;65395;53.168;18.156;2023-07-31T03:37:17;4.00;;;2.90;;
76552;SDS011;65395;53.168;18.156;2023-07-31T03:39:43;7.50;;;3.60;;
76552;SDS011;65395;53.168;18.156;2023-07-31T03:42:10;6.60;;;3.00;;
76552;SDS011;65395;53.168;18.156;2023-07-31T03:44:37;4.70;;;2.90;;
76552;SDS011;65395;53.168;18.156;2023-07-31T03:47:05;7.20;;;3.30;;
76552;SDS011;65395;53.168;18.156;2023-07-31T03:49:32;6.00;;;3.50;;
76552;SDS011;65395;53.168;18.156;2023-07-31T03:51:58;5.80;;;3.10;;
76552;SDS011;65395;53.168;18.156;2023-07-31T03:54:25;8.70;;;3.20;;
76552;SDS011;65395;53.168;18.156;2023-07-31T03:56:52;5.50;;;3.20;;
76552;SDS011;65395;53.168;18.156;2023-07-31T03:59:18;5.20;;;3.00;;
76552;SDS011;65395;53.168;18.156;2023-07-31T04:01:45;6.60;;;3.10;;
76552;SDS011;65395;53.168;18.156;2023-07-31T04:04:11;3.70;;;2.90;;
76552;SDS011;65395;53.168;18.156;2023-07-31T04:06:38;5.40;;;3.20;;
76552;SDS011;65395;53.168;18.156;2023-07-31T04:09:05;6.20;;;3.20;;
76552;SDS011;65395;53.168;18.156;2023-07-31T04:11:31;9.80;;;3.20;;
76552;SDS011;65395;53.168;18.156;2023-07-31T04:13:58;6.30;;;2.90;;
76552;SDS011;65395;53.168;18.156;2023-07-31T04:16:25;7.40;;;2.90;;
76552;SDS011;65395;53.168;18.156;2023-07-31T04:18:52;6.80;;;3.20;;
76552;SDS011;65395;53.168;18.156;2023-07-31T04:21:18;4.10;;;2.60;;
76552;SDS011;65395;53.168;18.156;2023-07-31T04:23:45;5.40;;;2.60;;
76552;SDS011;65395;53.168;18.156;2023-07-31T04:26:12;8.40;;;3.20;;
76552;SDS011;65395;53.168;18.156;2023-07-31T04:28:38;5.10;;;2.70;;
76552;SDS011;65395;53.168;18.156;2023-07-31T04:31:05;5.50;;;2.90;;
76552;SDS011;65395;53.168;18.156;2023-07-31T04:33:32;4.70;;;2.60;;
76552;SDS011;65395;53.168;18.156;2023-07-31T04:35:59;4.60;;;2.50;;
76552;SDS011;65395;53.168;18.156;2023-07-31T04:38:25;4.50;;;2.70;;
76552;SDS011;65395;53.168;18.156;2023-07-31T04:40:52;4.00;;;2.50;;
76552;SDS011;65395;53.168;18.156;2023-07-31T04:43:19;5.00;;;2.60;;
76552;SDS011;65395;53.168;18.156;2023-07-31T04:45:46;4.20;;;2.70;;
76552;SDS011;65395;53.168;18.156;2023-07-31T04:48:14;7.70;;;2.50;;
76552;SDS011;65395;53.168;18.156;2023-07-31T04:50:41;5.40;;;2.70;;
76552;SDS011;65395;53.168;18.156;2023-07-31T04:53:08;5.80;;;3.00;;
76552;SDS011;65395;53.168;18.156;2023-07-31T04:55:35;6.30;;;2.90;;
76552;SDS011;65395;53.168;18.156;2023-07-31T04:58:01;3.30;;;2.70;;
76552;SDS011;65395;53.168;18.156;2023-07-31T05:00:28;7.70;;;2.70;;
76552;SDS011;65395;53.168;18.156;2023-07-31T05:02:55;4.00;;;2.30;;
76552;SDS011;65395;53.168;18.156;2023-07-31T05:05:22;5.30;;;2.60;;
76552;SDS011;65395;53.168;18.156;2023-07-31T05:07:49;5.40;;;2.10;;
76552;SDS011;65395;53.168;18.156;2023-07-31T05:10:15;6.00;;;2.50;;
76552;SDS011;65395;53.168;18.156;2023-07-31T05:12:42;4.30;;;2.20;;
76552;SDS011;65395;53.168;18.156;2023-07-31T05:15:09;4.50;;;1.80;;
76552;SDS011;65395;53.168;18.156;2023-07-31T05:17:36;3.50;;;2.40;;
76552;SDS011;65395;53.168;18.156;2023-07-31T05:20:02;5.10;;;2.10;;
76552;SDS011;65395;53.168;18.156;2023-07-31T05:22:29;3.70;;;2.00;;
76552;SDS011;65395;53.168;18.156;2023-07-31T05:24:56;8.70;;;2.30;;
76552;SDS011;65395;53.168;18.156;2023-07-31T05:27:23;4.10;;;2.10;;
76552;SDS011;65395;53.168;18.156;2023-07-31T05:29:49;6.60;;;1.90;;
76552;SDS011;65395;53.168;18.156;2023-07-31T05:32:16;3.60;;;2.00;;
76552;SDS011;65395;53.168;18.156;2023-07-31T05:34:43;4.10;;;2.10;;
76552;SDS011;65395;53.168;18.156;2023-07-31T05:37:10;3.30;;;1.90;;
76552;SDS011;65395;53.168;18.156;2023-07-31T05:39:38;4.70;;;2.00;;
76552;SDS011;65395;53.168;18.156;2023-07-31T05:42:05;5.20;;;2.00;;
76552;SDS011;65395;53.168;18.156;2023-07-31T05:44:31;5.00;;;2.00;;
76552;SDS011;65395;53.168;18.156;2023-07-31T05:46:58;5.30;;;2.00;;
76552;SDS011;65395;53.168;18.156;2023-07-31T05:49:25;6.60;;;1.90;;
76552;SDS011;65395;53.168;18.156;2023-07-31T05:51:52;4.70;;;1.90;;
76552;SDS011;65395;53.168;18.156;2023-07-31T05:54:19;5.30;;;2.30;;
76552;SDS011;65395;53.168;18.156;2023-07-31T05:56:45;7.90;;;2.40;;
76552;SDS011;65395;53.168;18.156;2023-07-31T05:59:12;4.70;;;2.20;;
76552;SDS011;65395;53.168;18.156;2023-07-31T06:01:39;5.20;;;1.80;;
76552;SDS011;65395;53.168;18.156;2023-07-31T06:04:06;5.30;;;2.00;;
76552;SDS011;65395;53.168;18.156;2023-07-31T06:06:33;3.40;;;2.00;;
76552;SDS011;65395;53.168;18.156;2023-07-31T06:09:00;4.40;;;2.10;;
76552;SDS011;65395;53.168;18.156;2023-07-31T06:11:26;6.30;;;2.30;;
76552;SDS011;65395;53.168;18.156;2023-07-31T06:13:53;3.50;;;2.00;;
76552;SDS011;65395;53.168;18.156;2023-07-31T06:16:20;5.60;;;2.10;;
76552;SDS011;65395;53.168;18.156;2023-07-31T06:18:47;5.20;;;2.20;;
76552;SDS011;65395;53.168;18.156;2023-07-31T06:21:14;6.20;;;2.20;;
76552;SDS011;65395;53.168;18.156;2023-07-31T06:23:41;5.40;;;2.10;;
76552;SDS011;65395;53.168;18.156;2023-07-31T06:26:07;6.00;;;2.20;;
76552;SDS011;65395;53.168;18.156;2023-07-31T06:28:34;4.00;;;2.10;;
76552;SDS011;65395;53.168;18.156;2023-07-31T06:31:01;3.50;;;2.10;;
76552;SDS011;65395;53.168;18.156;2023-07-31T06:33:28;2.60;;;1.70;;
76552;SDS011;65395;53.168;18.156;2023-07-31T06:35:54;5.70;;;2.00;;
76552;SDS011;65395;53.168;18.156;2023-07-31T06:38:22;4.50;;;1.90;;
76552;SDS011;65395;53.168;18.156;2023-07-31T06:40:51;6.00;;;1.90;;
76552;SDS011;65395;53.168;18.156;2023-07-31T06:43:19;3.90;;;2.20;;
76552;SDS011;65395;53.168;18.156;2023-07-31T06:45:45;6.60;;;1.90;;
76552;SDS011;65395;53.168;18.156;2023-07-31T06:48:14;3.50;;;1.80;;
76552;SDS011;65395;53.168;18.156;2023-07-31T06:50:40;3.30;;;1.60;;
76552;SDS011;65395;53.168;18.156;2023-07-31T06:53:07;3.90;;;1.60;;
76552;SDS011;65395;53.168;18.156;2023-07-31T06:55:34;3.40;;;1.80;;
76552;SDS011;65395;53.168;18.156;2023-07-31T06:58:01;5.50;;;1.60;;
76552;SDS011;65395;53.168;18.156;2023-07-31T07:00:28;3.10;;;1.60;;
76552;SDS011;65395;53.168;18.156;2023-07-31T07:02:55;3.60;;;2.00;;
76552;SDS011;65395;53.168;18.156;2023-07-31T07:05:21;3.30;;;1.80;;
76552;SDS011;65395;53.168;18.156;2023-07-31T07:07:49;2.80;;;1.60;;
76552;SDS011;65395;53.168;18.156;2023-07-31T07:10:17;6.30;;;1.80;;
76552;SDS011;65395;53.168;18.156;2023-07-31T07:12:45;5.40;;;1.80;;
76552;SDS011;65395;53.168;18.156;2023-07-31T07:15:12;2.70;;;1.50;;
76552;SDS011;65395;53.168;18.156;2023-07-31T07:17:39;2.50;;;1.40;;
76552;SDS011;65395;53.168;18.156;2023-07-31T07:20:07;5.10;;;1.60;;
76552;SDS011;65395;53.168;18.156;2023-07-31T07:22:34;4.00;;;1.90;;
76552;SDS011;65395;53.168;18.156;2023-07-31T07:25:02;5.00;;;1.60;;
76552;SDS011;65395;53.168;18.156;2023-07-31T07:27:30;3.30;;;1.70;;
76552;SDS011;65395;53.168;18.156;2023-07-31T07:29:57;3.40;;;1.50;;
76552;SDS011;65395;53.168;18.156;2023-07-31T07:32:24;4.40;;;1.70;;
76552;SDS011;65395;53.168;18.156;2023-07-31T07:34:51;2.50;;;1.50;;
76552;SDS011;65395;53.168;18.156;2023-07-31T07:37:17;3.90;;;1.70;;
76552;SDS011;65395;53.168;18.156;2023-07-31T07:39:44;4.90;;;1.60;;
76552;SDS011;65395;53.168;18.156;2023-07-31T07:42:11;4.00;;;1.70;;
76552;SDS011;65395;53.168;18.156;2023-07-31T07:44:37;4.00;;;1.60;;
76552;SDS011;65395;53.168;18.156;2023-07-31T07:47:04;3.90;;;1.50;;
76552;SDS011;65395;53.168;18.156;2023-07-31T07:49:34;2.90;;;1.50;;
76552;SDS011;65395;53.168;18.156;2023-07-31T07:52:02;3.90;;;1.80;;
76552;SDS011;65395;53.168;18.156;2023-07-31T07:54:29;4.50;;;1.70;;
76552;SDS011;65395;53.168;18.156;2023-07-31T07:56:56;5.10;;;2.00;;
76552;SDS011;65395;53.168;18.156;2023-07-31T07:59:23;5.90;;;1.90;;
76552;SDS011;65395;53.168;18.156;2023-07-31T08:01:49;5.80;;;1.50;;
76552;SDS011;65395;53.168;18.156;2023-07-31T08:04:16;6.70;;;1.70;;
76552;SDS011;65395;53.168;18.156;2023-07-31T08:06:43;5.00;;;1.80;;
76552;SDS011;65395;53.168;18.156;2023-07-31T08:09:09;4.10;;;1.40;;
76552;SDS011;65395;53.168;18.156;2023-07-31T08:11:36;2.40;;;1.60;;
76552;SDS011;65395;53.168;18.156;2023-07-31T08:14:03;3.70;;;1.60;;
76552;SDS011;65395;53.168;18.156;2023-07-31T08:16:29;6.90;;;1.60;;
76552;SDS011;65395;53.168;18.156;2023-07-31T08:18:56;4.20;;;1.60;;
76552;SDS011;65395;53.168;18.156;2023-07-31T08:21:23;4.40;;;1.80;;
76552;SDS011;65395;53.168;18.156;2023-07-31T08:23:50;4.40;;;1.60;;
76552;SDS011;65395;53.168;18.156;2023-07-31T08:26:17;3.10;;;1.40;;
76552;SDS011;65395;53.168;18.156;2023-07-31T08:28:45;4.80;;;1.30;;
76552;SDS011;65395;53.168;18.156;2023-07-31T08:31:11;4.00;;;1.30;;
76552;SDS011;65395;53.168;18.156;2023-07-31T08:33:38;5.50;;;1.70;;
76552;SDS011;65395;53.168;18.156;2023-07-31T08:36:06;6.70;;;1.60;;
76552;SDS011;65395;53.168;18.156;2023-07-31T08:38:33;3.60;;;1.70;;
76552;SDS011;65395;53.168;18.156;2023-07-31T08:41:00;5.00;;;1.70;;
76552;SDS011;65395;53.168;18.156;2023-07-31T08:43:29;4.60;;;1.30;;
76552;SDS011;65395;53.168;18.156;2023-07-31T08:45:57;4.90;;;1.60;;
76552;SDS011;65395;53.168;18.156;2023-07-31T08:48:24;6.10;;;1.60;;
76552;SDS011;65395;53.168;18.156;2023-07-31T08:50:52;4.40;;;1.30;;
76552;SDS011;65395;53.168;18.156;2023-07-31T08:53:19;4.70;;;1.20;;
76552;SDS011;65395;53.168;18.156;2023-07-31T08:55:46;3.40;;;1.30;;
76552;SDS011;65395;53.168;18.156;2023-07-31T08:58:14;6.20;;;1.90;;
76552;SDS011;65395;53.168;18.156;2023-07-31T09:00:41;4.60;;;1.40;;
76552;SDS011;65395;53.168;18.156;2023-07-31T09:03:13;3.70;;;1.30;;
76552;SDS011;65395;53.168;18.156;2023-07-31T09:05:42;4.10;;;1.50;;
76552;SDS011;65395;53.168;18.156;2023-07-31T09:08:13;4.10;;;1.20;;
76552;SDS011;65395;53.168;18.156;2023-07-31T09:10:42;5.10;;;1.50;;
76552;SDS011;65395;53.168;18.156;2023-07-31T09:13:10;5.70;;;1.70;;
76552;SDS011;65395;53.168;18.156;2023-07-31T09:15:37;6.30;;;1.30;;
76552;SDS011;65395;53.168;18.156;2023-07-31T09:18:04;3.60;;;1.20;;
76552;SDS011;65395;53.168;18.156;2023-07-31T09:20:32;4.90;;;1.40;;
76552;SDS011;65395;53.168;18.156;2023-07-31T09:25:38;3.50;;;1.20;;
76552;SDS011;65395;53.168;18.156;2023-07-31T09:28:07;5.50;;;1.50;;
76552;SDS011;65395;53.168;18.156;2023-07-31T09:30:44;4.00;;;1.30;;
76552;SDS011;65395;53.168;18.156;2023-07-31T09:33:18;2.20;;;1.30;;
76552;SDS011;65395;53.168;18.156;2023-07-31T09:35:46;4.70;;;1.50;;
76552;SDS011;65395;53.168;18.156;2023-07-31T09:38:14;3.80;;;1.90;;
76552;SDS011;65395;53.168;18.156;2023-07-31T09:40:43;4.50;;;1.70;;
76552;SDS011;65395;53.168;18.156;2023-07-31T09:43:12;4.00;;;1.80;;
76552;SDS011;65395;53.168;18.156;2023-07-31T09:45:43;3.90;;;1.60;;
76552;SDS011;65395;53.168;18.156;2023-07-31T09:48:12;5.10;;;1.90;;
76552;SDS011;65395;53.168;18.156;2023-07-31T09:50:45;4.80;;;2.20;;
76552;SDS011;65395;53.168;18.156;2023-07-31T09:53:13;3.50;;;1.70;;
76552;SDS011;65395;53.168;18.156;2023-07-31T09:55:41;5.60;;;2.00;;
76552;SDS011;65395;53.168;18.156;2023-07-31T09:58:10;4.10;;;1.90;;
76552;SDS011;65395;53.168;18.156;2023-07-31T10:00:38;3.40;;;2.00;;
76552;SDS011;65395;53.168;18.156;2023-07-31T10:03:06;5.20;;;1.80;;
76552;SDS011;65395;53.168;18.156;2023-07-31T10:05:36;5.00;;;1.80;;
76552;SDS011;65395;53.168;18.156;2023-07-31T10:08:07;5.10;;;1.90;;
76552;SDS011;65395;53.168;18.156;2023-07-31T10:10:36;5.20;;;2.20;;
76552;SDS011;65395;53.168;18.156;2023-07-31T10:13:07;4.60;;;2.20;;
76552;SDS011;65395;53.168;18.156;2023-07-31T10:15:35;4.80;;;2.10;;
76552;SDS011;65395;53.168;18.156;2023-07-31T10:18:02;4.00;;;2.50;;
76552;SDS011;65395;53.168;18.156;2023-07-31T10:20:32;4.70;;;2.70;;
76552;SDS011;65395;53.168;18.156;2023-07-31T10:23:00;5.70;;;2.70;;
76552;SDS011;65395;53.168;18.156;2023-07-31T10:25:28;5.30;;;2.60;;
76552;SDS011;65395;53.168;18.156;2023-07-31T10:27:56;4.70;;;2.00;;
76552;SDS011;65395;53.168;18.156;2023-07-31T10:30:25;5.00;;;2.20;;
76552;SDS011;65395;53.168;18.156;2023-07-31T10:32:55;4.80;;;2.10;;
76552;SDS011;65395;53.168;18.156;2023-07-31T10:35:23;5.50;;;2.20;;
76552;SDS011;65395;53.168;18.156;2023-07-31T10:37:50;3.80;;;2.10;;
76552;SDS011;65395;53.168;18.156;2023-07-31T10:40:19;5.30;;;2.90;;
76552;SDS011;65395;53.168;18.156;2023-07-31T10:42:52;7.90;;;3.40;;
76552;SDS011;65395;53.168;18.156;2023-07-31T10:48:00;4.50;;;2.50;;
76552;SDS011;65395;53.168;18.156;2023-07-31T10:50:28;7.70;;;3.30;;
76552;SDS011;65395;53.168;18.156;2023-07-31T10:52:59;11.50;;;2.90;;
76552;SDS011;65395;53.168;18.156;2023-07-31T10:55:29;8.20;;;2.70;;
76552;SDS011;65395;53.168;18.156;2023-07-31T10:58:06;5.00;;;2.60;;
76552;SDS011;65395;53.168;18.156;2023-07-31T11:00:36;6.60;;;2.50;;
76552;SDS011;65395;53.168;18.156;2023-07-31T11:03:07;13.50;;;2.80;;
76552;SDS011;65395;53.168;18.156;2023-07-31T11:05:40;4.90;;;2.40;;
76552;SDS011;65395;53.168;18.156;2023-07-31T11:08:17;8.00;;;2.60;;
76552;SDS011;65395;53.168;18.156;2023-07-31T11:10:47;5.20;;;2.20;;
76552;SDS011;65395;53.168;18.156;2023-07-31T11:13:15;4.10;;;2.10;;
76552;SDS011;65395;53.168;18.156;2023-07-31T11:15:42;5.30;;;2.20;;
76552;SDS011;65395;53.168;18.156;2023-07-31T11:18:08;4.80;;;2.00;;
76552;SDS011;65395;53.168;18.156;2023-07-31T11:20:37;5.40;;;2.30;;
76552;SDS011;65395;53.168;18.156;2023-07-31T11:23:07;5.10;;;2.20;;
76552;SDS011;65395;53.168;18.156;2023-07-31T11:25:38;4.30;;;2.20;;
76552;SDS011;65395;53.168;18.156;2023-07-31T11:28:10;6.20;;;2.40;;
76552;SDS011;65395;53.168;18.156;2023-07-31T11:30:38;5.50;;;2.30;;
76552;SDS011;65395;53.168;18.156;2023-07-31T11:33:07;4.30;;;2.00;;
76552;SDS011;65395;53.168;18.156;2023-07-31T11:35:36;2.80;;;1.70;;
76552;SDS011;65395;53.168;18.156;2023-07-31T11:38:08;5.10;;;1.80;;
76552;SDS011;65395;53.168;18.156;2023-07-31T11:40:47;4.10;;;1.80;;
76552;SDS011;65395;53.168;18.156;2023-07-31T11:43:14;5.30;;;1.50;;
76552;SDS011;65395;53.168;18.156;2023-07-31T11:45:47;3.20;;;1.40;;
76552;SDS011;65395;53.168;18.156;2023-07-31T11:48:23;3.30;;;1.50;;
76552;SDS011;65395;53.168;18.156;2023-07-31T11:50:54;4.10;;;1.70;;
76552;SDS011;65395;53.168;18.156;2023-07-31T11:53:25;5.30;;;1.90;;
76552;SDS011;65395;53.168;18.156;2023-07-31T11:55:57;4.80;;;1.70;;
76552;SDS011;65395;53.168;18.156;2023-07-31T11:58:25;5.60;;;1.50;;
76552;SDS011;65395;53.168;18.156;2023-07-31T12:00:53;4.40;;;1.80;;
76552;SDS011;65395;53.168;18.156;2023-07-31T12:03:20;4.10;;;1.70;;
76552;SDS011;65395;53.168;18.156;2023-07-31T12:05:48;5.30;;;2.20;;
76552;SDS011;65395;53.168;18.156;2023-07-31T12:08:14;3.00;;;1.80;;
76552;SDS011;65395;53.168;18.156;2023-07-31T12:10:42;3.50;;;1.60;;
76552;SDS011;65395;53.168;18.156;2023-07-31T12:13:10;3.00;;;1.60;;
76552;SDS011;65395;53.168;18.156;2023-07-31T12:15:40;4.50;;;1.70;;
76552;SDS011;65395;53.168;18.156;2023-07-31T12:18:10;3.50;;;1.60;;
76552;SDS011;65395;53.168;18.156;2023-07-31T12:20:40;3.20;;;1.80;;
76552;SDS011;65395;53.168;18.156;2023-07-31T12:23:14;3.70;;;1.70;;
76552;SDS011;65395;53.168;18.156;2023-07-31T12:26:01;3.00;;;1.70;;
76552;SDS011;65395;53.168;18.156;2023-07-31T12:28:40;3.80;;;1.70;;
76552;SDS011;65395;53.168;18.156;2023-07-31T12:31:09;2.90;;;1.80;;
76552;SDS011;65395;53.168;18.156;2023-07-31T12:33:51;2.10;;;1.40;;
76552;SDS011;65395;53.168;18.156;2023-07-31T12:36:18;5.20;;;1.80;;
76552;SDS011;65395;53.168;18.156;2023-07-31T12:38:50;1.60;;;1.50;;
76552;SDS011;65395;53.168;18.156;2023-07-31T12:41:18;6.20;;;1.60;;
76552;SDS011;65395;53.168;18.156;2023-07-31T12:43:45;1.90;;;1.30;;
76552;SDS011;65395;53.168;18.156;2023-07-31T12:46:12;5.10;;;1.70;;
76552;SDS011;65395;53.168;18.156;2023-07-31T12:48:39;1.60;;;1.30;;
76552;SDS011;65395;53.168;18.156;2023-07-31T12:51:06;4.50;;;1.50;;
76552;SDS011;65395;53.168;18.156;2023-07-31T12:53:34;5.40;;;1.40;;
76552;SDS011;65395;53.168;18.156;2023-07-31T12:56:01;1.80;;;1.50;;
76552;SDS011;65395;53.168;18.156;2023-07-31T12:58:28;3.20;;;1.60;;
76552;SDS011;65395;53.168;18.156;2023-07-31T13:00:54;1.80;;;1.50;;
76552;SDS011;65395;53.168;18.156;2023-07-31T13:03:22;1.90;;;1.50;;
76552;SDS011;65395;53.168;18.156;2023-07-31T13:05:48;2.60;;;1.30;;
76552;SDS011;65395;53.168;18.156;2023-07-31T13:08:16;2.00;;;1.50;;
76552;SDS011;65395;53.168;18.156;2023-07-31T13:10:43;2.00;;;1.40;;
76552;SDS011;65395;53.168;18.156;2023-07-31T13:13:10;4.90;;;1.20;;
76552;SDS011;65395;53.168;18.156;2023-07-31T13:15:37;1.80;;;1.60;;
76552;SDS011;65395;53.168;18.156;2023-07-31T13:18:03;2.40;;;1.70;;
76552;SDS011;65395;53.168;18.156;2023-07-31T13:20:30;2.90;;;2.00;;
76552;SDS011;65395;53.168;18.156;2023-07-31T13:22:57;3.10;;;1.90;;
76552;SDS011;65395;53.168;18.156;2023-07-31T13:25:23;3.00;;;1.80;;
76552;SDS011;65395;53.168;18.156;2023-07-31T13:27:50;3.10;;;1.70;;
76552;SDS011;65395;53.168;18.156;2023-07-31T13:30:17;2.90;;;2.00;;
76552;SDS011;65395;53.168;18.156;2023-07-31T13:32:43;4.80;;;2.20;;
76552;SDS011;65395;53.168;18.156;2023-07-31T13:35:10;4.20;;;1.90;;
76552;SDS011;65395;53.168;18.156;2023-07-31T13:37:38;5.80;;;2.30;;
76552;SDS011;65395;53.168;18.156;2023-07-31T13:40:05;3.60;;;2.20;;
76552;SDS011;65395;53.168;18.156;2023-07-31T13:42:33;3.10;;;1.90;;
76552;SDS011;65395;53.168;18.156;2023-07-31T13:44:59;3.80;;;2.30;;
76552;SDS011;65395;53.168;18.156;2023-07-31T13:47:27;3.60;;;2.20;;
76552;SDS011;65395;53.168;18.156;2023-07-31T13:49:53;4.60;;;2.10;;
76552;SDS011;65395;53.168;18.156;2023-07-31T13:52:20;9.10;;;2.60;;
76552;SDS011;65395;53.168;18.156;2023-07-31T13:54:46;6.40;;;2.00;;
76552;SDS011;65395;53.168;18.156;2023-07-31T13:57:13;2.60;;;2.00;;
76552;SDS011;65395;53.168;18.156;2023-07-31T13:59:40;3.20;;;2.30;;
76552;SDS011;65395;53.168;18.156;2023-07-31T14:02:06;2.50;;;2.00;;
76552;SDS011;65395;53.168;18.156;2023-07-31T14:04:33;4.30;;;2.20;;
76552;SDS011;65395;53.168;18.156;2023-07-31T14:07:00;2.20;;;1.80;;
76552;SDS011;65395;53.168;18.156;2023-07-31T14:09:27;2.70;;;2.10;;
76552;SDS011;65395;53.168;18.156;2023-07-31T14:11:54;5.00;;;2.00;;
76552;SDS011;65395;53.168;18.156;2023-07-31T14:14:21;5.80;;;2.10;;
76552;SDS011;65395;53.168;18.156;2023-07-31T14:16:48;2.60;;;1.70;;
76552;SDS011;65395;53.168;18.156;2023-07-31T14:19:15;5.10;;;2.00;;
76552;SDS011;65395;53.168;18.156;2023-07-31T14:21:42;5.00;;;2.10;;
76552;SDS011;65395;53.168;18.156;2023-07-31T14:24:08;2.50;;;1.90;;
76552;SDS011;65395;53.168;18.156;2023-07-31T14:26:35;6.00;;;2.20;;
76552;SDS011;65395;53.168;18.156;2023-07-31T14:29:02;4.40;;;2.10;;
76552;SDS011;65395;53.168;18.156;2023-07-31T14:31:28;3.20;;;1.80;;
76552;SDS011;65395;53.168;18.156;2023-07-31T14:33:55;2.40;;;2.00;;
76552;SDS011;65395;53.168;18.156;2023-07-31T14:36:22;3.60;;;2.00;;
76552;SDS011;65395;53.168;18.156;2023-07-31T14:38:48;3.80;;;1.80;;
76552;SDS011;65395;53.168;18.156;2023-07-31T14:41:15;4.10;;;2.00;;
76552;SDS011;65395;53.168;18.156;2023-07-31T14:43:42;3.90;;;2.00;;
76552;SDS011;65395;53.168;18.156;2023-07-31T14:46:08;3.90;;;2.00;;
76552;SDS011;65395;53.168;18.156;2023-07-31T14:48:35;4.00;;;1.70;;
76552;SDS011;65395;53.168;18.156;2023-07-31T14:51:01;4.50;;;2.20;;